Time;durP1;ratioP1;P1;durP2;ratioP2;P2;SDS_P1;SDS_P2;PMS_P1;PMS_P2;Temp;Humidity;BMP_temperature;BMP_pressure;BME280_temperature;BME280_humidity;BME280_pressure;Samples;Min_cycle;Max_cycle;Signal;HPM_P1;HPM_P2
2022/07/30 00:00:20;;;;;;;3.20;1.60;;;;;;;18.10;57.93;100363.34;129988;1267;430150;-72
2022/07/30 00:03:41;;;;;;;3.10;1.40;;;;;;;17.94;58.42;100363.64;130278;1267;108817;-72
2022/07/30 00:06:46;;;;;;;3.40;2.00;;;;;;;17.83;58.67;100366.50;130275;1268;108702;-71
2022/07/30 00:09:52;;;;;;;2.20;1.70;;;;;;;17.72;59.13;100362.46;130274;1268;108885;-72
2022/07/30 00:12:57;;;;;;;3.20;1.60;;;;;;;17.64;59.86;100364.57;130192;1268;108658;-72
2022/07/30 00:16:02;;;;;;;2.50;1.70;;;;;;;17.56;60.34;100358.91;130212;1268;108979;-71
2022/07/30 00:19:08;;;;;;;2.60;1.50;;;;;;;17.52;59.95;100357.18;130288;1267;107436;-72
2022/07/30 00:22:14;;;;;;;2.30;1.40;;;;;;;17.50;59.82;100352.11;130234;1268;107247;-74
2022/07/30 00:25:20;;;;;;;3.30;1.90;;;;;;;17.50;60.60;100351.81;130234;1268;108757;-73
2022/07/30 00:28:25;;;;;;;2.50;1.60;;;;;;;17.43;60.75;100352.48;130263;1267;108856;-72
2022/07/30 00:31:30;;;;;;;1.90;1.50;;;;;;;17.41;60.50;100357.27;130244;1267;109173;-70
2022/07/30 00:34:36;;;;;;;1.80;1.20;;;;;;;17.43;60.26;100345.15;130285;1268;108778;-71
2022/07/30 00:37:41;;;;;;;2.60;1.50;;;;;;;17.50;60.14;100332.01;130226;1268;108709;-72
2022/07/30 00:40:49;;;;;;;1.70;1.40;;;;;;;17.55;60.15;100326.70;130240;1267;107750;-72
2022/07/30 00:43:54;;;;;;;2.50;1.60;;;;;;;17.58;60.22;100321.02;130272;1267;109006;-72
2022/07/30 00:47:00;;;;;;;3.40;1.50;;;;;;;17.62;59.93;100315.24;130252;1268;109008;-72
2022/07/30 00:50:08;;;;;;;1.90;1.20;;;;;;;17.64;59.76;100314.89;130312;1268;108713;-73
2022/07/30 00:53:14;;;;;;;1.90;1.30;;;;;;;17.68;59.61;100311.73;130275;1268;108678;-75
2022/07/30 00:56:19;;;;;;;3.10;1.50;;;;;;;17.71;59.53;100307.29;130316;1267;108864;-72
2022/07/30 00:59:26;;;;;;;3.00;1.90;;;;;;;17.72;59.51;100298.64;130284;1268;108697;-75
2022/07/30 01:02:32;;;;;;;3.00;1.50;;;;;;;17.74;59.52;100299.88;130300;1268;107584;-72
2022/07/30 01:05:37;;;;;;;1.90;1.50;;;;;;;17.72;59.38;100293.55;130256;1267;108925;-72
2022/07/30 01:08:43;;;;;;;3.50;1.60;;;;;;;17.73;59.28;100286.66;130329;1267;108920;-73
2022/07/30 01:11:48;;;;;;;3.70;1.40;;;;;;;17.76;59.14;100286.48;130339;1267;109740;-72
2022/07/30 01:14:55;;;;;;;2.70;1.30;;;;;;;17.76;59.31;100279.95;130256;1268;108581;-72
2022/07/30 01:18:04;;;;;;;2.40;1.20;;;;;;;17.74;59.24;100272.14;130270;1268;107647;-73
2022/07/30 01:21:13;;;;;;;3.40;1.30;;;;;;;17.75;59.12;100270.35;130319;1267;108723;-76
2022/07/30 01:24:27;;;;;;;2.60;1.40;;;;;;;17.75;59.13;100267.86;130312;1267;108736;-76
2022/07/30 01:27:36;;;;;;;4.40;1.50;;;;;;;17.73;59.10;100267.94;130284;1268;108655;-75
2022/07/30 01:30:45;;;;;;;3.20;1.30;;;;;;;17.71;59.08;100271.75;130303;1268;108873;-73
2022/07/30 01:33:51;;;;;;;3.40;1.50;;;;;;;17.69;59.29;100269.69;130372;1268;109173;-73
2022/07/30 01:37:00;;;;;;;2.20;1.20;;;;;;;17.65;59.30;100264.13;130330;1268;107857;-74
2022/07/30 01:40:08;;;;;;;1.80;1.30;;;;;;;17.61;59.27;100263.55;130339;1267;109180;-72
2022/07/30 01:43:14;;;;;;;4.10;1.30;;;;;;;17.57;59.44;100259.34;130205;1268;108728;-72
2022/07/30 01:46:23;;;;;;;1.90;1.40;;;;;;;17.55;59.42;100258.84;130321;1267;108877;-73
2022/07/30 01:49:31;;;;;;;3.40;1.30;;;;;;;17.54;59.37;100256.91;130223;1268;108776;-70
2022/07/30 01:52:38;;;;;;;3.00;1.40;;;;;;;17.53;59.31;100254.41;130357;1268;108996;-71
2022/07/30 01:55:46;;;;;;;1.70;1.40;;;;;;;17.52;59.48;100246.69;130230;1268;108640;-73
2022/07/30 01:58:54;;;;;;;2.30;1.50;;;;;;;17.51;59.49;100246.14;130331;1267;108681;-72
2022/07/30 02:02:02;;;;;;;2.30;1.50;;;;;;;17.48;59.40;100232.06;130267;1268;108854;-73
2022/07/30 02:05:09;;;;;;;1.80;1.20;;;;;;;17.46;59.62;100228.91;130396;1267;108672;-73
2022/07/30 02:08:22;;;;;;;3.10;1.20;;;;;;;17.44;59.74;100222.50;130318;1268;107016;-73
2022/07/30 02:15:00;;;;;;;2.90;1.40;;;;;;;17.38;60.07;100214.49;130232;1268;108659;-72
2022/07/30 02:18:18;;;;;;;2.10;1.60;;;;;;;17.36;60.19;100205.64;130077;1268;107764;-74
2022/07/30 02:21:25;;;;;;;2.80;1.70;;;;;;;17.33;60.23;100200.98;130104;1268;108819;-72
2022/07/30 02:24:33;;;;;;;4.70;1.70;;;;;;;17.31;60.40;100198.77;130372;1268;108958;-72
2022/07/30 02:27:43;;;;;;;4.10;1.80;;;;;;;17.28;60.53;100194.18;130295;1268;108677;-74
2022/07/30 02:30:53;;;;;;;2.20;1.60;;;;;;;17.24;60.51;100189.08;130313;1267;108740;-74
2022/07/30 02:34:02;;;;;;;2.30;1.60;;;;;;;17.23;60.63;100186.07;130263;1268;108845;-72
2022/07/30 02:37:13;;;;;;;2.50;1.60;;;;;;;17.21;60.96;100180.74;130209;1268;109010;-71
2022/07/30 02:40:21;;;;;;;3.20;1.60;;;;;;;17.21;60.64;100171.40;130143;1268;109166;-71
2022/07/30 02:43:29;;;;;;;2.60;1.50;;;;;;;17.25;61.00;100165.50;130089;1268;108843;-71
2022/07/30 02:46:37;;;;;;;2.30;1.50;;;;;;;17.29;60.85;100167.17;130181;1268;108788;-70
2022/07/30 02:50:03;;;;;;;3.20;1.90;;;;;;;17.31;60.87;100166.69;130158;1267;109561;-70
2022/07/30 02:53:11;;;;;;;2.90;2.00;;;;;;;17.31;60.74;100174.11;130247;1267;107497;-71
2022/07/30 02:56:19;;;;;;;3.70;1.60;;;;;;;17.31;60.81;100181.80;130267;1268;108854;-72
2022/07/30 02:59:26;;;;;;;4.80;1.90;;;;;;;17.29;61.10;100177.44;130175;1268;108969;-71
2022/07/30 03:02:33;;;;;;;5.60;2.30;;;;;;;17.26;60.94;100182.73;130135;1268;108762;-71
2022/07/30 03:05:39;;;;;;;6.30;2.50;;;;;;;17.27;60.91;100184.80;130130;1268;109037;-71
2022/07/30 03:08:46;;;;;;;3.50;1.80;;;;;;;17.29;60.95;100191.83;130189;1267;108671;-72
2022/07/30 03:11:53;;;;;;;4.10;1.90;;;;;;;17.29;61.18;100190.34;130286;1268;107845;-74
2022/07/30 03:14:59;;;;;;;3.00;2.10;;;;;;;17.29;61.05;100193.90;130259;1267;108946;-74
2022/07/30 03:18:07;;;;;;;4.20;1.80;;;;;;;17.31;61.10;100194.95;130343;1268;108959;-74
2022/07/30 03:21:15;;;;;;;3.80;1.70;;;;;;;17.29;61.61;100193.53;130295;1267;107707;-73
2022/07/30 03:24:23;;;;;;;2.70;1.70;;;;;;;17.24;61.44;100190.77;130295;1268;108862;-72
2022/07/30 03:27:30;;;;;;;4.30;1.70;;;;;;;17.21;61.56;100191.70;130274;1267;108781;-71
2022/07/30 03:30:37;;;;;;;3.50;1.70;;;;;;;17.17;61.71;100195.58;130221;1268;108709;-71
2022/07/30 03:33:43;;;;;;;2.20;1.70;;;;;;;17.19;61.68;100209.08;130226;1268;109703;-71
2022/07/30 03:36:50;;;;;;;2.40;1.60;;;;;;;17.20;61.77;100205.71;130229;1268;108878;-71
2022/07/30 03:39:58;;;;;;;2.70;1.60;;;;;;;17.24;61.78;100213.00;130242;1271;108748;-70
2022/07/30 03:43:07;;;;;;;2.50;1.50;;;;;;;17.29;61.89;100214.27;130179;1267;109050;-70
2022/07/30 03:46:13;;;;;;;4.30;2.00;;;;;;;17.34;61.72;100212.48;130104;1267;109731;-70
2022/07/30 03:49:23;;;;;;;3.90;1.80;;;;;;;17.38;61.91;100213.61;130207;1268;109537;-71
2022/07/30 03:52:28;;;;;;;2.80;2.30;;;;;;;17.37;61.93;100217.35;130209;1268;108744;-72
2022/07/30 03:55:36;;;;;;;2.90;1.90;;;;;;;17.35;62.08;100212.98;130297;1268;108789;-72
2022/07/30 03:59:04;;;;;;;2.40;1.60;;;;;;;17.32;62.29;100211.05;130290;1268;108855;-74
2022/07/30 04:02:11;;;;;;;2.40;1.80;;;;;;;17.32;62.16;100209.43;130194;1270;108836;-75
2022/07/30 04:05:43;;;;;;;4.20;3.20;;;;;;;17.34;62.18;100213.27;130012;1268;108369;-76
2022/07/30 04:08:50;;;;;;;5.70;2.90;;;;;;;17.34;62.21;100210.89;130301;1268;108715;-76
2022/07/30 04:11:55;;;;;;;5.50;2.10;;;;;;;17.34;62.54;100214.30;130137;1269;108959;-74
2022/07/30 04:15:07;;;;;;;2.80;1.80;;;;;;;17.35;62.76;100213.52;130312;1267;107773;-74
2022/07/30 04:18:15;;;;;;;3.60;1.80;;;;;;;17.33;62.90;100210.57;130192;1271;108808;-73
2022/07/30 04:21:23;;;;;;;3.10;1.60;;;;;;;17.31;63.84;100205.06;130386;1267;108682;-75
2022/07/30 04:24:32;;;;;;;4.20;1.80;;;;;;;17.28;64.34;100203.44;130267;1267;108746;-72
2022/07/30 04:27:39;;;;;;;4.10;2.30;;;;;;;17.29;64.77;100201.99;130312;1268;109122;-73
2022/07/30 04:30:45;;;;;;;3.90;3.30;;;;;;;17.30;64.96;100202.44;130294;1267;106686;-73
2022/07/30 04:33:52;;;;;;;7.30;5.40;;;;;;;17.30;65.43;100199.18;130322;1267;107858;-73
2022/07/30 04:37:06;;;;;;;4.70;3.80;;;;;;;17.29;65.59;100198.23;130334;1267;108911;-72
2022/07/30 04:40:13;;;;;;;4.30;2.70;;;;;;;17.28;65.68;100198.76;130347;1267;108873;-72
2022/07/30 04:43:18;;;;;;;5.00;2.90;;;;;;;17.28;65.87;100192.12;130226;1268;108720;-72
2022/07/30 04:46:24;;;;;;;4.00;3.00;;;;;;;17.30;66.15;100187.52;130176;1270;108753;-73
2022/07/30 04:49:30;;;;;;;4.30;2.70;;;;;;;17.35;66.23;100191.77;130286;1268;108738;-72
2022/07/30 04:52:36;;;;;;;3.30;2.60;;;;;;;17.37;66.57;100188.76;130249;1268;108735;-72
2022/07/30 04:55:46;;;;;;;2.70;2.30;;;;;;;17.37;66.44;100183.20;130302;1268;108821;-74
2022/07/30 04:58:54;;;;;;;4.40;1.90;;;;;;;17.37;66.55;100182.07;130261;1268;109623;-77
2022/07/30 05:02:01;;;;;;;2.10;1.90;;;;;;;17.37;66.49;100182.41;130322;1268;107043;-74
2022/07/30 05:05:10;;;;;;;1.90;1.40;;;;;;;17.35;66.85;100184.34;130126;1269;108565;-76
2022/07/30 05:08:16;;;;;;;2.70;1.40;;;;;;;17.31;67.19;100185.83;130259;1267;108752;-75
2022/07/30 05:11:22;;;;;;;1.90;1.60;;;;;;;17.28;67.18;100183.98;130310;1268;108764;-74
2022/07/30 05:14:27;;;;;;;2.20;1.50;;;;;;;17.26;67.19;100188.84;130205;1269;109009;-74
2022/07/30 05:17:33;;;;;;;3.50;1.90;;;;;;;17.30;67.34;100188.80;130306;1268;107334;-74
2022/07/30 05:20:39;;;;;;;2.80;1.40;;;;;;;17.32;67.49;100195.00;130333;1268;108688;-73
2022/07/30 05:23:58;;;;;;;4.60;1.70;;;;;;;17.33;67.83;100199.78;130311;1267;108946;-74
2022/07/30 05:27:09;;;;;;;3.40;1.60;;;;;;;17.28;67.91;100201.28;130199;1268;108768;-74
2022/07/30 05:30:15;;;;;;;2.40;1.50;;;;;;;17.26;67.97;100202.15;130215;1268;108653;-72
2022/07/30 05:33:24;;;;;;;4.30;1.60;;;;;;;17.24;68.36;100197.36;130272;1267;108769;-72
2022/07/30 05:36:30;;;;;;;3.80;1.60;;;;;;;17.22;68.56;100194.02;130219;1268;108861;-72
2022/07/30 05:39:35;;;;;;;2.90;1.70;;;;;;;17.29;68.59;100193.98;130247;1268;108675;-73
2022/07/30 05:43:01;;;;;;;2.40;1.60;;;;;;;17.38;68.53;100202.84;130140;1271;108786;-75
2022/07/30 05:46:06;;;;;;;2.40;1.70;;;;;;;17.46;68.65;100194.95;130230;1268;108820;-75
2022/07/30 05:49:14;;;;;;;2.80;1.90;;;;;;;17.51;68.99;100189.24;130268;1268;108954;-71
2022/07/30 05:52:20;;;;;;;3.90;1.80;;;;;;;17.57;69.07;100187.65;130252;1268;108649;-73
2022/07/30 05:55:25;;;;;;;2.60;1.60;;;;;;;17.61;69.19;100185.23;130300;1268;108649;-73
2022/07/30 05:58:38;;;;;;;4.90;2.20;;;;;;;17.68;69.33;100180.77;130303;1267;108731;-74
2022/07/30 06:01:43;;;;;;;2.50;1.70;;;;;;;17.72;69.04;100177.17;130271;1268;109191;-71
2022/07/30 06:04:54;;;;;;;2.50;1.70;;;;;;;17.74;69.24;100169.13;130169;1268;109524;-71
2022/07/30 06:08:00;;;;;;;2.50;1.90;;;;;;;17.76;69.08;100169.71;130115;1268;109562;-74
2022/07/30 06:11:08;;;;;;;2.10;1.80;;;;;;;17.77;69.55;100172.25;130305;1268;107727;-72
2022/07/30 06:14:15;;;;;;;3.30;2.00;;;;;;;17.85;69.71;100171.35;130242;1268;108605;-72
2022/07/30 06:17:21;;;;;;;2.60;1.60;;;;;;;17.94;69.62;100163.83;130300;1267;107667;-69
2022/07/30 06:20:48;;;;;;;2.90;2.00;;;;;;;18.03;69.48;100164.52;130227;1268;108648;-72
2022/07/30 06:24:00;;;;;;;1.90;1.70;;;;;;;18.15;69.54;100163.88;130345;1267;108768;-73
2022/07/30 06:27:14;;;;;;;3.80;1.90;;;;;;;18.29;69.40;100160.65;130340;1267;108707;-74
2022/07/30 06:30:20;;;;;;;2.20;1.90;;;;;;;18.43;69.53;100152.98;130176;1270;107853;-72
2022/07/30 06:33:25;;;;;;;3.20;1.90;;;;;;;18.55;69.30;100155.34;130284;1268;109550;-72
2022/07/30 06:36:31;;;;;;;3.30;2.10;;;;;;;18.67;69.13;100163.45;130086;1270;108639;-71
2022/07/30 06:39:41;;;;;;;3.80;1.80;;;;;;;18.77;69.11;100159.84;130306;1268;108829;-70
2022/07/30 06:43:08;;;;;;;4.10;1.80;;;;;;;18.94;69.18;100160.22;130375;1268;108878;-73
2022/07/30 06:46:25;;;;;;;1.60;1.50;;;;;;;19.06;69.06;100161.82;130105;1268;108907;-70
2022/07/30 06:49:34;;;;;;;2.20;1.60;;;;;;;19.12;68.97;100159.92;130250;1268;107683;-73
2022/07/30 06:52:39;;;;;;;3.80;1.90;;;;;;;19.22;68.97;100159.58;130490;1268;108773;-75
2022/07/30 06:55:45;;;;;;;2.20;1.90;;;;;;;19.39;69.04;100155.86;130257;1268;108727;-75
2022/07/30 06:58:50;;;;;;;4.20;2.10;;;;;;;19.59;69.13;100154.98;130259;1268;108675;-75
2022/07/30 07:02:08;;;;;;;4.30;1.90;;;;;;;19.79;68.82;100151.30;130270;1268;108835;-73
2022/07/30 07:05:27;;;;;;;5.10;2.10;;;;;;;19.90;68.59;100145.58;130239;1268;108691;-72
2022/07/30 07:08:35;;;;;;;4.20;2.40;;;;;;;20.01;68.59;100138.52;130260;1268;108781;-72
2022/07/30 07:11:40;;;;;;;2.60;2.10;;;;;;;20.12;68.59;100137.23;130247;1268;109718;-72
2022/07/30 07:14:48;;;;;;;2.70;2.10;;;;;;;20.24;68.45;100144.23;130025;1268;108684;-73
2022/07/30 07:17:54;;;;;;;5.10;2.20;;;;;;;20.34;68.33;100141.80;130274;1268;108696;-71
2022/07/30 07:20:59;;;;;;;2.90;2.00;;;;;;;20.42;68.25;100137.35;130275;1268;108989;-71
2022/07/30 07:24:05;;;;;;;3.50;2.10;;;;;;;20.46;68.13;100136.56;130090;1268;109642;-72
2022/07/30 07:27:28;;;;;;;3.70;2.30;;;;;;;20.46;67.92;100134.06;130279;1267;108727;-71
2022/07/30 07:30:36;;;;;;;3.10;1.90;;;;;;;20.50;67.83;100128.83;130100;1268;108625;-70
2022/07/30 07:33:42;;;;;;;2.70;2.30;;;;;;;20.53;67.70;100127.85;130292;1267;108975;-73
2022/07/30 07:36:48;;;;;;;3.70;2.40;;;;;;;20.49;67.61;100123.34;130219;1268;108816;-73
2022/07/30 07:39:53;;;;;;;2.90;2.10;;;;;;;20.49;67.78;100117.91;130333;1268;108864;-72
2022/07/30 07:42:59;;;;;;;4.50;2.50;;;;;;;20.45;67.83;100114.20;130220;1268;108729;-72
2022/07/30 07:46:04;;;;;;;3.60;2.60;;;;;;;20.37;67.78;100119.55;130245;1268;107732;-72
2022/07/30 07:49:11;;;;;;;3.50;2.30;;;;;;;20.28;67.77;100111.58;130387;1267;108651;-74
2022/07/30 07:52:22;;;;;;;4.90;2.40;;;;;;;20.16;67.68;100109.61;130288;1268;108811;-75
2022/07/30 07:55:27;;;;;;;2.90;1.90;;;;;;;20.14;67.84;100109.52;130253;1268;108707;-72
2022/07/30 07:58:34;;;;;;;2.20;2.00;;;;;;;20.21;67.85;100109.83;130208;1268;109109;-72
2022/07/30 08:01:40;;;;;;;4.20;2.10;;;;;;;20.36;68.10;100110.01;130107;1269;108748;-72
2022/07/30 08:05:06;;;;;;;3.20;2.30;;;;;;;20.60;67.77;100111.23;130227;1268;108972;-71
2022/07/30 08:08:11;;;;;;;5.30;2.00;;;;;;;20.78;67.56;100111.33;130624;1268;107849;-72
2022/07/30 08:11:16;;;;;;;2.90;2.00;;;;;;;20.91;67.52;100111.45;130526;1266;108847;-74
2022/07/30 08:14:48;;;;;;;4.00;2.80;;;;;;;21.08;67.44;100115.90;130395;1268;108969;-72
2022/07/30 08:18:12;;;;;;;3.40;2.50;;;;;;;21.24;67.31;100120.95;130348;1268;109142;-72
2022/07/30 08:21:27;;;;;;;4.20;2.00;;;;;;;21.36;67.10;100120.92;130437;1266;108901;-72
2022/07/30 08:24:32;;;;;;;2.90;2.20;;;;;;;21.41;67.13;100120.27;130342;1268;108943;-72
2022/07/30 08:27:37;;;;;;;2.70;2.30;;;;;;;21.36;66.96;100115.58;130388;1268;108775;-72
2022/07/30 08:30:43;;;;;;;3.90;2.40;;;;;;;21.23;67.02;100111.02;130370;1267;107705;-73
2022/07/30 08:33:48;;;;;;;2.20;2.00;;;;;;;21.14;66.96;100113.28;130370;1268;108760;-76
2022/07/30 08:36:54;;;;;;;5.10;2.60;;;;;;;21.12;66.91;100110.27;130461;1268;108626;-72
2022/07/30 08:39:59;;;;;;;3.00;2.20;;;;;;;21.07;66.87;100102.46;130577;1268;108713;-72
2022/07/30 08:43:08;;;;;;;3.00;2.40;;;;;;;21.03;66.79;100101.60;130425;1268;108763;-72
2022/07/30 08:46:17;;;;;;;3.50;2.50;;;;;;;20.95;66.74;100098.27;130441;1268;109185;-71
2022/07/30 08:49:42;;;;;;;2.30;2.10;;;;;;;20.84;66.80;100095.05;130292;1267;108911;-73
2022/07/30 08:52:49;;;;;;;2.90;2.30;;;;;;;20.77;66.92;100099.54;130274;1267;108716;-72
2022/07/30 08:55:54;;;;;;;3.30;2.50;;;;;;;20.69;67.14;100099.31;130202;1268;108761;-72
2022/07/30 08:59:01;;;;;;;3.20;2.50;;;;;;;20.63;67.34;100096.21;130254;1267;107837;-72
2022/07/30 09:02:06;;;;;;;5.20;2.70;;;;;;;20.52;67.29;100101.65;130234;1268;108500;-75
2022/07/30 09:05:16;;;;;;;3.30;2.60;;;;;;;20.42;67.44;100104.45;130186;1271;108923;-72
2022/07/30 09:08:22;;;;;;;2.70;2.20;;;;;;;20.31;67.62;100111.42;130176;1268;108945;-73
2022/07/30 09:11:29;;;;;;;2.50;2.30;;;;;;;20.21;67.67;100109.08;130299;1268;109345;-72
2022/07/30 09:14:34;;;;;;;2.60;2.40;;;;;;;20.14;67.93;100099.27;130273;1268;108831;-71
2022/07/30 09:17:52;;;;;;;3.50;2.60;;;;;;;20.05;68.24;100099.33;130246;1268;108779;-74
2022/07/30 09:20:58;;;;;;;3.00;2.40;;;;;;;19.93;68.69;100100.07;130270;1268;108841;-72
2022/07/30 09:24:08;;;;;;;3.10;2.80;;;;;;;19.81;69.00;100098.39;130178;1268;109142;-72
2022/07/30 09:27:45;;;;;;;4.70;3.20;;;;;;;19.73;69.33;100090.86;130207;1268;108693;-72
2022/07/30 09:31:09;;;;;;;;;;;;;;;19.64;69.65;100087.52;130040;1268;109040;-71
2022/07/30 09:34:35;;;;;;;3.80;2.40;;;;;;;19.60;69.98;100092.81;130254;1268;108856;-72
2022/07/30 09:37:41;;;;;;;3.70;2.70;;;;;;;19.63;70.18;100100.02;130284;1268;108855;-70
2022/07/30 09:41:05;;;;;;;6.10;3.40;;;;;;;19.75;70.42;100101.89;130086;1268;109784;-70
2022/07/30 09:44:28;;;;;;;3.70;3.10;;;;;;;19.81;70.48;100096.68;130096;1269;109622;-70
2022/07/30 09:47:37;;;;;;;3.40;2.90;;;;;;;19.89;70.51;100104.23;130245;1268;108720;-71
2022/07/30 09:50:49;;;;;;;3.20;2.90;;;;;;;19.92;70.65;100101.88;130154;1268;109071;-73
2022/07/30 09:53:58;;;;;;;5.50;3.00;;;;;;;19.88;70.89;100103.36;130456;1268;107558;-71
2022/07/30 09:57:07;;;;;;;3.80;2.80;;;;;;;19.88;71.06;100100.98;130330;1268;107970;-71
2022/07/30 10:00:24;;;;;;;5.80;3.10;;;;;;;19.90;71.07;100099.37;130616;1268;107574;-74
2022/07/30 10:03:48;;;;;;;5.80;3.00;;;;;;;19.90;71.32;100100.17;130308;1268;107841;-74
2022/07/30 10:07:21;;;;;;;4.00;3.30;;;;;;;19.93;71.39;100100.77;130410;1268;109474;-73
2022/07/30 10:10:29;;;;;;;5.30;3.50;;;;;;;19.98;71.42;100099.98;130454;1267;108852;-77
2022/07/30 10:13:36;;;;;;;4.10;3.60;;;;;;;20.05;71.60;100097.12;130280;1268;108728;-72
2022/07/30 10:16:42;;;;;;;4.80;3.40;;;;;;;20.08;71.80;100100.47;130577;1268;108719;-73
2022/07/30 10:19:48;;;;;;;3.90;3.20;;;;;;;20.12;71.82;100102.48;130337;1268;109462;-75
2022/07/30 10:23:13;;;;;;;3.40;2.90;;;;;;;20.17;71.81;100094.98;130397;1268;108949;-76
2022/07/30 10:26:37;;;;;;;4.90;4.40;;;;;;;20.18;71.93;100087.46;130366;1268;108913;-73
2022/07/30 10:30:07;;;;;;;5.20;3.80;;;;;;;20.14;72.05;100090.88;130307;1268;108852;-73
2022/07/30 10:33:13;;;;;;;3.90;3.00;;;;;;;20.10;72.37;100089.25;130415;1268;109015;-77
2022/07/30 10:36:20;;;;;;;4.40;4.00;;;;;;;20.00;72.36;100083.48;130370;1268;108843;-77
2022/07/30 10:39:31;;;;;;;5.90;3.80;;;;;;;19.93;72.50;100078.24;130249;1268;108486;-72
2022/07/30 10:42:58;;;;;;;4.20;3.60;;;;;;;19.88;72.90;100085.45;130147;1268;108770;-71
2022/07/30 10:46:16;;;;;;;4.00;3.60;;;;;;;19.92;73.35;100093.20;130163;1268;109776;-72
2022/07/30 10:49:21;;;;;;;4.40;3.60;;;;;;;19.98;73.18;100099.13;130363;1268;109939;-75
2022/07/30 10:52:50;;;;;;;6.10;4.10;;;;;;;20.03;73.50;100086.93;130375;1268;108825;-73
2022/07/30 10:56:12;;;;;;;4.70;4.10;;;;;;;19.98;73.55;100070.98;130348;1268;107683;-75
2022/07/30 10:59:18;;;;;;;3.70;3.20;;;;;;;19.92;73.94;100069.04;130318;1268;108719;-72
2022/07/30 11:02:24;;;;;;;3.50;3.20;;;;;;;19.87;73.93;100085.95;130301;1268;108646;-73
2022/07/30 11:05:31;;;;;;;4.80;3.90;;;;;;;19.89;74.09;100091.27;130453;1267;108917;-73
2022/07/30 11:08:40;;;;;;;7.10;4.30;;;;;;;19.91;74.55;100091.88;130405;1268;108704;-73
2022/07/30 11:11:46;;;;;;;4.80;4.30;;;;;;;19.90;74.54;100091.71;130376;1268;108755;-72
2022/07/30 11:14:59;;;;;;;6.00;4.70;;;;;;;19.93;74.74;100081.33;130376;1268;108746;-71
2022/07/30 11:18:08;;;;;;;5.50;4.60;;;;;;;19.84;75.35;100070.64;130338;1268;108749;-71
2022/07/30 11:21:18;;;;;;;4.50;3.60;;;;;;;19.68;76.26;100066.38;130350;1268;108849;-73
2022/07/30 11:24:45;;;;;;;4.80;4.10;;;;;;;19.56;75.62;100058.73;130395;1268;108776;-74
2022/07/30 11:27:51;;;;;;;4.30;3.80;;;;;;;19.49;76.31;100051.70;130506;1268;110269;-75
2022/07/30 11:30:56;;;;;;;7.90;4.30;;;;;;;19.43;76.01;100056.34;130401;1268;108943;-73
2022/07/30 11:34:30;;;;;;;6.20;4.20;;;;;;;19.42;76.03;100061.20;130368;1268;108127;-73
2022/07/30 11:38:03;;;;;;;5.10;4.20;;;;;;;19.44;76.07;100058.70;130347;1268;108711;-72
2022/07/30 11:41:11;;;;;;;4.40;3.90;;;;;;;19.47;76.86;100059.63;130443;1268;108423;-72
2022/07/30 11:44:32;;;;;;;5.90;4.20;;;;;;;19.41;76.90;100060.48;130178;1268;108804;-71
2022/07/30 11:47:37;;;;;;;5.20;4.30;;;;;;;19.35;77.55;100056.44;130215;1268;107341;-73
2022/07/30 11:50:45;;;;;;;5.00;4.00;;;;;;;19.23;77.07;100051.74;130032;1268;107297;-75
2022/07/30 11:54:03;;;;;;;4.30;3.30;;;;;;;19.16;78.15;100040.45;130317;1268;106986;-73
2022/07/30 11:57:09;;;;;;;7.70;4.00;;;;;;;19.04;78.07;100036.52;130401;1268;108664;-74
2022/07/30 12:00:17;;;;;;;4.10;3.80;;;;;;;19.08;78.01;100040.52;130102;1268;288700;-73
2022/07/30 12:03:23;;;;;;;5.30;4.60;;;;;;;19.18;78.09;100041.08;130318;1268;108945;-72
2022/07/30 12:06:30;;;;;;;5.70;4.00;;;;;;;19.38;77.90;100040.73;130280;1268;108576;-72
2022/07/30 12:09:36;;;;;;;5.30;3.50;;;;;;;19.54;77.89;100034.64;130223;1268;107712;-74
2022/07/30 12:12:41;;;;;;;4.50;3.70;;;;;;;19.68;77.74;100031.02;130839;1268;108722;-73
2022/07/30 12:15:48;;;;;;;6.30;4.40;;;;;;;19.76;77.75;100022.99;130592;1268;109216;-73
2022/07/30 12:18:54;;;;;;;5.10;4.40;;;;;;;19.83;77.89;100018.88;130337;1268;108104;-72
2022/07/30 12:22:01;;;;;;;5.30;4.50;;;;;;;19.86;78.12;100017.34;130426;1268;108840;-71
2022/07/30 12:25:10;;;;;;;7.50;4.30;;;;;;;19.92;77.75;100015.17;130324;1268;109451;-68
2022/07/30 12:28:21;;;;;;;7.00;4.10;;;;;;;20.03;77.78;100011.34;130461;1268;108934;-70
2022/07/30 12:31:28;;;;;;;4.40;4.00;;;;;;;20.14;77.68;100013.12;130299;1268;109785;-71
2022/07/30 12:34:33;;;;;;;4.90;4.40;;;;;;;20.27;77.83;100015.09;130545;1268;108893;-70
2022/07/30 12:37:39;;;;;;;6.10;5.00;;;;;;;20.33;77.82;100016.70;130311;1268;108734;-70
2022/07/30 12:41:02;;;;;;;5.50;4.60;;;;;;;20.39;77.89;100011.92;130320;1268;108962;-69
2022/07/30 12:44:07;;;;;;;5.20;4.50;;;;;;;20.46;77.78;100008.73;130274;1268;111745;-69
2022/07/30 12:47:25;;;;;;;4.30;3.90;;;;;;;20.55;77.83;100003.55;130266;1267;108775;-69
2022/07/30 12:50:30;;;;;;;5.10;4.20;;;;;;;20.64;78.05;99997.59;130228;1268;108839;-72
2022/07/30 12:53:36;;;;;;;6.70;4.80;;;;;;;20.73;77.77;100003.41;130188;1268;109925;-70
2022/07/30 12:56:41;;;;;;;6.50;4.70;;;;;;;20.87;77.45;100000.73;130212;1268;107090;-71
2022/07/30 12:59:46;;;;;;;7.10;4.80;;;;;;;20.97;77.22;100004.10;130145;1268;109585;-69
2022/07/30 13:02:52;;;;;;;20.50;6.10;;;;;;;20.94;77.04;99998.42;130204;1268;108747;-70
2022/07/30 13:05:59;;;;;;;5.90;4.30;;;;;;;20.87;77.13;99998.21;130295;1268;109055;-69
2022/07/30 13:09:05;;;;;;;6.50;4.30;;;;;;;20.74;77.23;99996.45;130161;1268;109301;-70
2022/07/30 13:12:14;;;;;;;6.00;4.60;;;;;;;20.58;77.22;99988.85;130243;1268;108776;-69
2022/07/30 13:15:22;;;;;;;4.30;3.90;;;;;;;20.45;77.24;99981.02;130205;1268;108639;-71
2022/07/30 13:18:29;;;;;;;4.70;3.90;;;;;;;20.36;77.30;99979.55;130180;1268;108556;-70
2022/07/30 13:21:35;;;;;;;5.10;4.10;;;;;;;20.32;77.33;99974.52;130075;1268;109045;-71
2022/07/30 13:24:40;;;;;;;4.90;3.80;;;;;;;20.30;77.17;99980.03;130209;1267;108919;-70
2022/07/30 13:27:45;;;;;;;4.60;3.50;;;;;;;20.17;77.27;99976.32;130270;1268;108875;-70
2022/07/30 13:30:51;;;;;;;4.90;3.90;;;;;;;20.14;77.45;99973.45;130181;1268;109077;-73
2022/07/30 13:33:56;;;;;;;5.00;4.20;;;;;;;20.09;77.45;99959.14;130145;1268;108832;-69
2022/07/30 13:37:02;;;;;;;6.80;4.50;;;;;;;20.00;77.48;99955.86;130155;1268;109680;-69
2022/07/30 13:40:09;;;;;;;5.10;4.20;;;;;;;19.89;77.80;99954.21;130205;1268;108188;-71
2022/07/30 13:43:15;;;;;;;6.00;3.70;;;;;;;19.83;77.84;99953.83;130210;1268;108701;-70
2022/07/30 13:46:20;;;;;;;4.30;3.70;;;;;;;19.75;77.83;99951.86;130061;1268;108720;-69
2022/07/30 13:49:25;;;;;;;4.20;3.50;;;;;;;19.69;78.07;99948.42;130326;1268;108838;-70
2022/07/30 13:52:31;;;;;;;5.00;3.60;;;;;;;19.69;78.06;99949.92;130192;1268;108830;-68
2022/07/30 13:55:37;;;;;;;4.50;3.80;;;;;;;19.67;78.02;99952.64;130224;1267;108832;-69
2022/07/30 13:58:43;;;;;;;4.50;4.10;;;;;;;19.68;78.03;99949.52;130245;1268;108963;-69
2022/07/30 14:01:48;;;;;;;4.70;3.50;;;;;;;19.64;77.94;99946.70;130207;1267;108697;-70
2022/07/30 14:04:54;;;;;;;3.60;3.20;;;;;;;19.61;78.08;99953.36;130132;1267;109365;-70
2022/07/30 14:07:59;;;;;;;4.30;3.50;;;;;;;19.59;78.25;99948.92;130139;1267;108867;-70
2022/07/30 14:11:04;;;;;;;4.70;3.50;;;;;;;19.60;78.30;99938.00;130154;1267;107675;-71
2022/07/30 14:14:10;;;;;;;5.10;3.70;;;;;;;19.67;78.24;99933.04;130272;1268;109171;-71
2022/07/30 14:17:15;;;;;;;4.50;3.40;;;;;;;19.72;78.34;99926.95;130058;1268;108838;-67
2022/07/30 14:20:21;;;;;;;5.20;4.00;;;;;;;19.75;78.15;99925.42;130229;1268;108856;-74
2022/07/30 14:23:26;;;;;;;4.20;3.40;;;;;;;19.79;78.20;99925.72;130633;1268;109774;-73